Time;durP1;ratioP1;P1;durP2;ratioP2;P2;SDS_P1;SDS_P2;PMS_P1;PMS_P2;Temp;Humidity;BMP_temperature;BMP_pressure;BME280_temperature;BME280_humidity;BME280_pressure;Samples;Min_cycle;Max_cycle;Signal;HPM_P1;HPM_P2
2022/01/27 00:05:31;;;;;;;33.17;16.83;;;;;;;;;;5015167;28;20121;-72
2022/01/27 00:08:11;;;;;;;37.72;17.42;;;;;;;;;;5046372;28;20511;-72
2022/01/27 00:11:00;;;;;;;36.38;17.10;;;;;;;;;;5046946;28;20033;-71
2022/01/27 00:13:31;;;;;;;32.35;16.73;;;;;;;;;;5047767;28;20257;-71
2022/01/27 00:16:41;;;;;;;35.15;17.00;;;;;;;;;;5047816;28;20538;-72
2022/01/27 00:18:47;;;;;;;29.27;15.57;;;;;;;;;;5038740;28;20060;-72
2022/01/27 00:21:13;;;;;;;33.22;16.83;;;;;;;;;;5014743;28;20207;-72
2022/01/27 00:23:41;;;;;;;31.60;16.98;;;;;;;;;;5030885;28;20031;-71
2022/01/27 00:26:06;;;;;;;41.08;18.05;;;;;;;;;;5011011;28;20025;-71
2022/01/27 00:28:31;;;;;;;40.03;18.35;;;;;;;;;;5030050;28;20585;-72
2022/01/27 00:30:57;;;;;;;38.65;17.98;;;;;;;;;;5029609;28;20047;-72
2022/01/27 00:33:22;;;;;;;34.85;17.60;;;;;;;;;;5048234;28;20133;-72
2022/01/27 00:35:47;;;;;;;37.63;16.75;;;;;;;;;;5030308;28;20076;-72
2022/01/27 00:38:13;;;;;;;35.20;17.20;;;;;;;;;;5029379;28;20040;-72
2022/01/27 00:40:38;;;;;;;37.78;17.27;;;;;;;;;;5047586;28;20064;-72
2022/01/27 00:43:03;;;;;;;38.97;17.30;;;;;;;;;;5030241;28;20053;-72
2022/01/27 00:45:32;;;;;;;37.05;17.75;;;;;;;;;;5029551;28;20106;-72
2022/01/27 00:48:01;;;;;;;36.75;16.88;;;;;;;;;;5028002;28;20017;-71
2022/01/27 00:50:26;;;;;;;39.97;17.63;;;;;;;;;;5031142;28;20475;-71
2022/01/27 00:52:54;;;;;;;37.08;18.08;;;;;;;;;;5047838;28;20021;-71
2022/01/27 00:55:22;;;;;;;36.85;17.27;;;;;;;;;;5047640;28;20020;-71
2022/01/27 01:00:17;;;;;;;28.40;15.07;;;;;;;;;;5030301;28;20035;-71
2022/01/27 01:03:04;;;;;;;37.53;16.08;;;;;;;;;;5029278;28;20029;-71
2022/01/27 01:05:50;;;;;;;32.28;15.15;;;;;;;;;;5033306;28;20025;-71
2022/01/27 01:11:32;;;;;;;31.42;15.50;;;;;;;;;;5032723;28;20165;-71
2022/01/27 01:30:09;;;;;;;;;;;;;;;;;;5052211;28;20144;-71
2022/01/27 01:32:50;;;;;;;27.13;13.80;;;;;;;;;;5050102;28;19958;-71
2022/01/27 01:35:17;;;;;;;33.78;15.38;;;;;;;;;;5036327;28;20047;-71
2022/01/27 01:37:43;;;;;;;33.00;15.38;;;;;;;;;;5034005;28;20041;-71
2022/01/27 01:40:14;;;;;;;31.70;14.30;;;;;;;;;;5032547;28;20600;-71
2022/01/27 01:42:39;;;;;;;30.25;13.43;;;;;;;;;;5050215;28;20048;-71
2022/01/27 01:45:09;;;;;;;30.75;14.23;;;;;;;;;;5033677;28;20423;-71
2022/01/27 01:47:34;;;;;;;28.95;14.45;;;;;;;;;;5052044;28;20025;-71
2022/01/27 01:50:00;;;;;;;31.13;14.73;;;;;;;;;;5050887;28;20380;-71
2022/01/27 01:52:25;;;;;;;29.88;14.43;;;;;;;;;;5051559;28;20554;-71
2022/01/27 01:54:53;;;;;;;26.83;13.50;;;;;;;;;;5013324;28;20527;-71
2022/01/27 01:57:18;;;;;;;31.45;14.95;;;;;;;;;;5029657;28;20024;-71
2022/01/27 01:59:43;;;;;;;30.40;14.32;;;;;;;;;;5051153;28;20110;-71
2022/01/27 02:02:12;;;;;;;25.83;12.70;;;;;;;;;;5015553;28;20429;-71
2022/01/27 02:04:38;;;;;;;28.30;13.30;;;;;;;;;;5050460;28;20036;-71
2022/01/27 02:07:09;;;;;;;26.48;13.25;;;;;;;;;;5013714;28;20029;-71
2022/01/27 02:17:59;;;;;;;23.08;10.90;;;;;;;;;;5050019;28;20094;-71
2022/01/27 02:20:24;;;;;;;20.13;9.80;;;;;;;;;;5034359;28;20016;-71
2022/01/27 02:22:49;;;;;;;23.23;9.60;;;;;;;;;;5033757;28;20111;-71
2022/01/27 02:25:17;;;;;;;20.48;10.15;;;;;;;;;;5050292;28;20120;-71
2022/01/27 02:27:43;;;;;;;18.40;9.00;;;;;;;;;;5032351;28;20495;-71
2022/01/27 02:30:08;;;;;;;20.55;9.60;;;;;;;;;;5031298;28;20036;-71
2022/01/27 02:32:34;;;;;;;16.70;8.63;;;;;;;;;;5050696;28;20060;-71
2022/01/27 02:35:00;;;;;;;16.90;8.40;;;;;;;;;;5031630;28;20468;-71
2022/01/27 02:37:25;;;;;;;15.80;8.23;;;;;;;;;;5031180;28;20025;-71
2022/01/27 02:39:50;;;;;;;20.42;9.18;;;;;;;;;;5031040;28;20128;-71
2022/01/27 02:42:25;;;;;;;18.70;8.98;;;;;;;;;;5049679;28;20100;-71
2022/01/27 02:45:01;;;;;;;18.02;9.48;;;;;;;;;;5031512;28;20467;-71
2022/01/27 02:47:27;;;;;;;15.43;8.13;;;;;;;;;;5031675;28;20020;-71
2022/01/27 02:49:52;;;;;;;21.65;8.55;;;;;;;;;;5032119;28;20032;-71
2022/01/27 02:52:17;;;;;;;16.30;8.77;;;;;;;;;;5031307;28;20048;-71
2022/01/27 02:54:43;;;;;;;15.75;7.75;;;;;;;;;;5032545;28;20102;-71
2022/01/27 02:57:08;;;;;;;16.52;7.95;;;;;;;;;;5049429;28;20029;-71
2022/01/27 02:59:33;;;;;;;16.33;7.80;;;;;;;;;;5049845;28;20024;-71
2022/01/27 03:01:59;;;;;;;16.88;8.55;;;;;;;;;;5031196;28;20084;-71
2022/01/27 03:04:25;;;;;;;16.98;8.77;;;;;;;;;;5033698;28;20186;-71
2022/01/27 03:06:50;;;;;;;22.08;8.48;;;;;;;;;;5031978;28;20060;-71
2022/01/27 03:09:15;;;;;;;11.82;6.85;;;;;;;;;;5048784;28;20028;-71
2022/01/27 03:11:46;;;;;;;15.43;7.38;;;;;;;;;;5049079;28;20028;-71
2022/01/27 03:14:21;;;;;;;15.77;7.10;;;;;;;;;;5048362;28;20036;-71
2022/01/27 03:16:47;;;;;;;17.55;7.32;;;;;;;;;;5032121;28;20040;-71
2022/01/27 03:19:12;;;;;;;12.38;6.57;;;;;;;;;;5031298;28;20499;-71
2022/01/27 03:21:37;;;;;;;13.75;6.45;;;;;;;;;;5049732;28;20047;-71
2022/01/27 03:24:03;;;;;;;12.68;6.40;;;;;;;;;;5047628;28;20133;-71
2022/01/27 03:26:29;;;;;;;13.48;5.75;;;;;;;;;;5029786;28;20021;-71
2022/01/27 03:28:54;;;;;;;12.63;5.70;;;;;;;;;;5032302;28;20361;-71
2022/01/27 03:31:20;;;;;;;12.40;5.63;;;;;;;;;;5013438;28;20120;-71
2022/01/27 03:33:45;;;;;;;10.13;5.35;;;;;;;;;;5031296;28;20071;-71
2022/01/27 03:36:10;;;;;;;10.07;5.57;;;;;;;;;;5030788;28;20117;-71
2022/01/27 03:38:36;;;;;;;10.93;5.53;;;;;;;;;;5032959;28;20045;-71
2022/01/27 03:41:06;;;;;;;9.07;4.80;;;;;;;;;;5030590;28;20031;-71
2022/01/27 03:43:31;;;;;;;12.60;6.10;;;;;;;;;;5048674;28;20100;-71
2022/01/27 03:45:56;;;;;;;14.05;6.60;;;;;;;;;;5030817;28;20096;-71
2022/01/27 03:48:22;;;;;;;11.05;6.13;;;;;;;;;;5031038;28;20044;-71
2022/01/27 03:50:47;;;;;;;13.80;7.70;;;;;;;;;;5049430;28;20391;-71
2022/01/27 03:53:14;;;;;;;12.70;6.82;;;;;;;;;;5048422;28;20502;-71
2022/01/27 03:55:40;;;;;;;13.38;7.32;;;;;;;;;;5030951;28;20028;-71
2022/01/27 03:58:05;;;;;;;14.68;7.18;;;;;;;;;;5030279;28;20471;-71
2022/01/27 04:00:30;;;;;;;15.60;7.05;;;;;;;;;;5047841;28;20032;-71
2022/01/27 04:03:08;;;;;;;14.82;6.82;;;;;;;;;;5030825;28;20087;-71
2022/01/27 04:05:37;;;;;;;12.88;6.60;;;;;;;;;;5050460;28;20393;-71
2022/01/27 04:08:04;;;;;;;16.35;6.65;;;;;;;;;;5014782;28;20052;-71
2022/01/27 04:10:29;;;;;;;13.30;6.78;;;;;;;;;;5030033;28;20520;-71
2022/01/27 04:12:54;;;;;;;12.30;6.30;;;;;;;;;;5031008;28;20032;-71
2022/01/27 04:15:20;;;;;;;12.82;6.40;;;;;;;;;;5029768;28;20029;-71
2022/01/27 04:17:45;;;;;;;11.98;6.38;;;;;;;;;;5013368;28;20020;-71
2022/01/27 04:20:11;;;;;;;12.23;6.28;;;;;;;;;;5050264;28;20017;-71
2022/01/27 04:22:36;;;;;;;8.70;4.88;;;;;;;;;;5023164;28;20387;-71
2022/01/27 04:25:01;;;;;;;12.65;5.20;;;;;;;;;;5029748;28;20035;-71
2022/01/27 04:27:31;;;;;;;9.15;4.90;;;;;;;;;;5031732;28;20021;-71
2022/01/27 04:29:57;;;;;;;9.57;4.68;;;;;;;;;;5032030;28;20484;-71
2022/01/27 04:32:28;;;;;;;9.43;5.10;;;;;;;;;;5048104;28;20029;-71
2022/01/27 04:34:59;;;;;;;7.38;5.00;;;;;;;;;;5048467;28;20040;-71
2022/01/27 04:37:26;;;;;;;8.25;4.60;;;;;;;;;;5049005;28;20028;-71
2022/01/27 04:40:00;;;;;;;10.57;4.95;;;;;;;;;;5031769;28;20029;-71
2022/01/27 04:43:04;;;;;;;10.57;5.20;;;;;;;;;;5049165;28;20101;-71
2022/01/27 04:45:19;;;;;;;9.90;5.20;;;;;;;;;;5044263;28;20133;-71
2022/01/27 04:47:49;;;;;;;10.52;5.25;;;;;;;;;;5050225;28;20336;-71
2022/01/27 04:50:15;;;;;;;9.18;5.07;;;;;;;;;;5032534;28;20025;-71
2022/01/27 04:52:44;;;;;;;8.55;4.85;;;;;;;;;;5031152;28;20029;-71
2022/01/27 04:55:12;;;;;;;11.05;5.10;;;;;;;;;;5014421;28;20016;-71
2022/01/27 04:57:40;;;;;;;12.13;5.25;;;;;;;;;;5030727;28;20101;-70
2022/01/27 05:00:07;;;;;;;11.05;5.45;;;;;;;;;;5036411;28;20059;-70
2022/01/27 05:02:41;;;;;;;9.93;5.15;;;;;;;;;;5031895;28;20028;-71
2022/01/27 05:05:07;;;;;;;;;;;;;;;;;;5053972;28;20112;-71
2022/01/27 05:07:32;;;;;;;6.82;3.70;;;;;;;;;;5052786;28;20418;-71
2022/01/27 05:10:02;;;;;;;7.30;4.40;;;;;;;;;;5033311;28;20033;-71
2022/01/27 05:12:33;;;;;;;7.18;4.32;;;;;;;;;;5051162;28;20917;-71
2022/01/27 05:14:59;;;;;;;7.05;4.45;;;;;;;;;;5050460;28;20494;-71
2022/01/27 05:17:25;;;;;;;5.13;3.17;;;;;;;;;;5034243;28;20040;-71
2022/01/27 05:19:51;;;;;;;3.92;2.88;;;;;;;;;;5050077;28;20025;-71
2022/01/27 05:22:16;;;;;;;5.13;3.03;;;;;;;;;;5052839;28;20025;-71
2022/01/27 05:24:41;;;;;;;4.60;2.60;;;;;;;;;;5002657;28;20028;-71
2022/01/27 05:27:07;;;;;;;5.25;2.38;;;;;;;;;;5037012;28;20060;-71
2022/01/27 05:29:32;;;;;;;4.07;2.60;;;;;;;;;;5053292;28;20451;-71
2022/01/27 05:31:57;;;;;;;3.08;2.20;;;;;;;;;;5052182;28;20889;-71
2022/01/27 05:34:23;;;;;;;4.65;2.28;;;;;;;;;;5052902;28;20025;-71
2022/01/27 05:36:48;;;;;;;3.00;2.08;;;;;;;;;;5052346;28;20021;-71
2022/01/27 05:39:13;;;;;;;2.58;1.83;;;;;;;;;;5034921;28;20017;-71
2022/01/27 05:41:39;;;;;;;1.95;1.70;;;;;;;;;;5051744;28;20036;-71
2022/01/27 05:44:04;;;;;;;3.40;2.15;;;;;;;;;;5032492;28;20025;-70
2022/01/27 05:46:30;;;;;;;1.95;1.58;;;;;;;;;;5015706;28;20478;-69
2022/01/27 05:48:55;;;;;;;2.00;1.80;;;;;;;;;;5049573;28;20532;-70
2022/01/27 05:51:20;;;;;;;2.22;1.52;;;;;;;;;;5049782;28;20060;-70
2022/01/27 05:53:46;;;;;;;3.15;1.70;;;;;;;;;;5032028;28;20059;-70
2022/01/27 05:56:11;;;;;;;3.42;1.80;;;;;;;;;;5030775;28;20064;-70
2022/01/27 05:58:36;;;;;;;3.55;1.60;;;;;;;;;;5048988;28;20028;-70
2022/01/27 06:01:02;;;;;;;2.10;1.50;;;;;;;;;;5049435;28;20120;-70
2022/01/27 06:03:27;;;;;;;2.50;1.60;;;;;;;;;;5031346;28;20024;-69
2022/01/27 06:05:52;;;;;;;3.90;1.67;;;;;;;;;;5032373;28;20036;-69
2022/01/27 06:08:18;;;;;;;1.75;1.42;;;;;;;;;;5048292;28;20025;-70
2022/01/27 06:10:43;;;;;;;2.10;1.60;;;;;;;;;;5032103;28;20025;-70
2022/01/27 06:13:08;;;;;;;1.45;1.35;;;;;;;;;;5031744;28;20028;-69
2022/01/27 06:15:34;;;;;;;2.08;1.40;;;;;;;;;;5048012;28;20199;-69
2022/01/27 06:18:00;;;;;;;1.77;1.42;;;;;;;;;;5030305;28;20427;-70
2022/01/27 06:20:25;;;;;;;1.77;1.40;;;;;;;;;;5016721;28;20389;-70
2022/01/27 06:22:54;;;;;;;2.22;1.60;;;;;;;;;;5032259;28;20029;-70
2022/01/27 06:25:19;;;;;;;3.17;1.58;;;;;;;;;;5031558;28;20517;-70
2022/01/27 06:27:45;;;;;;;1.60;1.23;;;;;;;;;;5048706;28;20029;-69
2022/01/27 06:30:13;;;;;;;1.60;1.40;;;;;;;;;;5048009;28;20032;-69
2022/01/27 06:32:38;;;;;;;1.63;1.40;;;;;;;;;;5048230;28;20049;-70
2022/01/27 06:35:04;;;;;;;1.27;1.17;;;;;;;;;;5031897;28;20063;-70
2022/01/27 06:37:33;;;;;;;2.60;1.20;;;;;;;;;;5031771;28;20033;-69
2022/01/27 06:39:59;;;;;;;2.13;1.55;;;;;;;;;;5029977;28;20031;-70
2022/01/27 06:42:24;;;;;;;1.55;1.40;;;;;;;;;;5029623;28;20517;-69
2022/01/27 06:44:50;;;;;;;1.92;1.40;;;;;;;;;;5031038;28;20035;-69
2022/01/27 06:47:15;;;;;;;2.70;1.40;;;;;;;;;;5029462;28;20375;-70
2022/01/27 06:49:40;;;;;;;2.05;1.30;;;;;;;;;;5048645;28;20060;-71
2022/01/27 06:52:06;;;;;;;2.45;1.20;;;;;;;;;;5031837;28;20052;-69
2022/01/27 06:54:32;;;;;;;2.20;1.30;;;;;;;;;;5027167;28;20071;-70
2022/01/27 06:56:57;;;;;;;1.80;1.40;;;;;;;;;;5029284;28;20064;-69
2022/01/27 06:59:23;;;;;;;2.30;1.20;;;;;;;;;;5046450;28;20399;-69
2022/01/27 07:01:48;;;;;;;1.35;1.27;;;;;;;;;;5046742;28;20601;-69
2022/01/27 07:04:13;;;;;;;0.95;0.95;;;;;;;;;;5029685;28;20016;-69
2022/01/27 07:06:39;;;;;;;1.60;1.38;;;;;;;;;;5047024;28;20090;-70
2022/01/27 07:09:04;;;;;;;1.20;1.10;;;;;;;;;;5029738;28;20402;-70
2022/01/27 07:11:30;;;;;;;1.52;1.42;;;;;;;;;;5029354;28;20111;-69
2022/01/27 07:13:55;;;;;;;1.30;1.20;;;;;;;;;;5047695;28;20122;-69
2022/01/27 07:16:20;;;;;;;4.07;1.52;;;;;;;;;;5045740;28;20509;-69
2022/01/27 07:18:46;;;;;;;8.85;1.50;;;;;;;;;;5044808;28;20556;-69
2022/01/27 07:21:11;;;;;;;1.25;1.15;;;;;;;;;;5029633;28;20051;-71
2022/01/27 07:23:36;;;;;;;2.10;1.50;;;;;;;;;;5048836;28;20486;-71
2022/01/27 07:26:02;;;;;;;1.27;1.20;;;;;;;;;;5028488;28;20029;-71
2022/01/27 07:28:27;;;;;;;1.40;1.30;;;;;;;;;;5031067;28;20063;-69
2022/01/27 07:30:52;;;;;;;1.65;1.45;;;;;;;;;;5030064;28;20036;-71
2022/01/27 07:33:18;;;;;;;1.20;1.10;;;;;;;;;;5031666;28;20027;-71
2022/01/27 07:35:43;;;;;;;1.10;1.10;;;;;;;;;;5048270;28;20060;-71
2022/01/27 07:38:08;;;;;;;1.63;1.38;;;;;;;;;;5030666;28;20063;-71
2022/01/27 07:40:34;;;;;;;1.00;1.00;;;;;;;;;;5031011;28;20512;-71
2022/01/27 07:42:59;;;;;;;1.27;1.08;;;;;;;;;;5030180;28;20534;-71
2022/01/27 07:45:24;;;;;;;1.70;1.10;;;;;;;;;;5049766;28;20017;-69
2022/01/27 07:47:50;;;;;;;0.93;0.93;;;;;;;;;;5025904;28;20036;-69
2022/01/27 07:50:15;;;;;;;0.98;0.98;;;;;;;;;;5046180;28;20544;-71
2022/01/27 07:52:43;;;;;;;1.02;0.95;;;;;;;;;;5030467;28;20116;-70
2022/01/27 07:55:09;;;;;;;2.80;1.20;;;;;;;;;;5048276;28;20040;-71
2022/01/27 07:57:35;;;;;;;1.30;1.20;;;;;;;;;;5029217;28;20574;-69
2022/01/27 08:00:00;;;;;;;2.40;1.10;;;;;;;;;;5027550;28;20064;-71
2022/01/27 08:02:25;;;;;;;1.17;1.15;;;;;;;;;;5028533;28;20083;-69
2022/01/27 08:04:51;;;;;;;1.40;1.30;;;;;;;;;;5029373;28;20041;-70
2022/01/27 08:07:16;;;;;;;2.75;1.40;;;;;;;;;;5045989;28;20071;-70
2022/01/27 08:09:41;;;;;;;2.90;1.20;;;;;;;;;;5046164;28;20052;-71
2022/01/27 08:12:07;;;;;;;1.42;1.00;;;;;;;;;;5045174;28;20056;-71
2022/01/27 08:14:32;;;;;;;2.13;1.30;;;;;;;;;;5047331;28;20028;-70
2022/01/27 08:16:58;;;;;;;3.42;1.17;;;;;;;;;;5047734;28;20079;-68
2022/01/27 08:19:23;;;;;;;1.40;1.25;;;;;;;;;;5047012;28;20517;-69
2022/01/27 08:21:48;;;;;;;1.35;1.20;;;;;;;;;;5045360;28;20033;-68
2022/01/27 08:24:15;;;;;;;1.55;1.30;;;;;;;;;;5048222;28;20441;-69
2022/01/27 08:26:44;;;;;;;1.98;1.40;;;;;;;;;;5046556;28;20471;-69
2022/01/27 08:35:00;;;;;;;1.15;1.15;;;;;;;;;;5045876;28;20285;-69
2022/01/27 08:37:21;;;;;;;1.70;1.10;;;;;;;;;;5029572;28;20102;-69
2022/01/27 08:39:46;;;;;;;1.33;1.20;;;;;;;;;;5047723;28;20025;-69
2022/01/27 08:42:12;;;;;;;2.10;1.20;;;;;;;;;;5045938;28;20590;-69
2022/01/27 08:44:37;;;;;;;3.08;1.00;;;;;;;;;;5011032;28;20070;-69
2022/01/27 08:47:03;;;;;;;1.50;1.10;;;;;;;;;;5028690;28;20028;-69
2022/01/27 08:49:28;;;;;;;0.82;0.82;;;;;;;;;;5027185;28;20068;-69
2022/01/27 08:51:54;;;;;;;2.78;1.00;;;;;;;;;;5028514;28;20075;-69
2022/01/27 08:54:19;;;;;;;1.35;1.02;;;;;;;;;;5027652;28;20391;-69
2022/01/27 08:56:45;;;;;;;1.80;1.20;;;;;;;;;;5044126;28;20033;-69
2022/01/27 08:59:10;;;;;;;1.15;1.00;;;;;;;;;;5029438;28;20021;-69
2022/01/27 09:01:35;;;;;;;0.98;0.90;;;;;;;;;;5047204;28;20040;-68
2022/01/27 09:04:01;;;;;;;3.35;1.20;;;;;;;;;;5047000;28;20032;-69
2022/01/27 09:06:29;;;;;;;1.60;1.00;;;;;;;;;;5028515;28;20020;-69
2022/01/27 09:08:55;;;;;;;1.10;1.00;;;;;;;;;;5047497;28;20037;-69
2022/01/27 09:11:21;;;;;;;2.88;1.02;;;;;;;;;;5046069;28;20040;-68
2022/01/27 09:13:46;;;;;;;2.53;0.90;;;;;;;;;;5024651;28;20089;-68
2022/01/27 09:16:11;;;;;;;0.85;0.85;;;;;;;;;;5026303;28;20025;-68
2022/01/27 09:18:37;;;;;;;1.67;0.80;;;;;;;;;;5049894;28;20056;-68
2022/01/27 09:21:06;;;;;;;1.00;0.85;;;;;;;;;;5013711;28;20029;-68
2022/01/27 09:23:33;;;;;;;1.27;1.10;;;;;;;;;;5030133;28;20033;-68
2022/01/27 09:26:03;;;;;;;0.80;0.80;;;;;;;;;;5047651;28;20700;-68
2022/01/27 09:28:29;;;;;;;0.80;0.80;;;;;;;;;;5028886;28;20483;-68
2022/01/27 09:30:56;;;;;;;1.95;0.98;;;;;;;;;;5045330;28;20395;-68
2022/01/27 09:33:21;;;;;;;1.20;1.10;;;;;;;;;;5027623;28;20035;-69
2022/01/27 09:35:46;;;;;;;1.38;1.08;;;;;;;;;;5026882;28;20536;-68
2022/01/27 09:38:12;;;;;;;1.10;1.00;;;;;;;;;;5045267;28;20636;-68
2022/01/27 09:40:37;;;;;;;2.38;1.13;;;;;;;;;;5008696;28;20506;-69
2022/01/27 09:43:04;;;;;;;0.98;0.90;;;;;;;;;;5047890;28;20498;-68
2022/01/27 09:45:30;;;;;;;1.67;1.00;;;;;;;;;;5033947;28;20028;-69
2022/01/27 09:48:00;;;;;;;1.00;1.00;;;;;;;;;;5047999;28;20488;-68
2022/01/27 09:52:53;;;;;;;3.08;1.10;;;;;;;;;;5052445;28;20032;-68
2022/01/27 09:55:18;;;;;;;1.70;1.30;;;;;;;;;;5015948;28;20931;-68
2022/01/27 09:57:46;;;;;;;8.25;1.30;;;;;;;;;;5033451;28;20064;-69
2022/01/27 10:00:13;;;;;;;1.15;1.10;;;;;;;;;;5048013;28;20025;-68
2022/01/27 10:02:39;;;;;;;1.80;1.10;;;;;;;;;;5050841;28;20106;-68
2022/01/27 10:05:05;;;;;;;2.80;1.75;;;;;;;;;;5034373;28;20029;-68
2022/01/27 10:07:40;;;;;;;1.40;1.30;;;;;;;;;;5050134;28;20501;-69
2022/01/27 10:10:11;;;;;;;6.13;1.52;;;;;;;;;;5051217;28;20021;-68
2022/01/27 10:12:39;;;;;;;2.40;1.23;;;;;;;;;;5032912;28;20032;-68
2022/01/27 10:15:11;;;;;;;1.35;1.20;;;;;;;;;;5033294;28;20039;-68
2022/01/27 10:17:39;;;;;;;1.33;1.20;;;;;;;;;;5033131;28;20031;-69
2022/01/27 10:20:15;;;;;;;13.77;1.48;;;;;;;;;;5032620;28;20023;-68
2022/01/27 10:22:40;;;;;;;1.10;1.00;;;;;;;;;;5051009;28;20029;-68
2022/01/27 10:25:12;;;;;;;1.15;1.05;;;;;;;;;;5051127;28;20028;-69
2022/01/27 10:30:46;;;;;;;1.60;1.10;;;;;;;;;;5054477;28;20713;-71
2022/01/27 10:33:26;;;;;;;1.27;1.10;;;;;;;;;;5047957;28;20124;-70
2022/01/27 10:35:52;;;;;;;0.95;0.90;;;;;;;;;;5033440;28;20032;-72
2022/01/27 10:38:18;;;;;;;1.10;1.10;;;;;;;;;;5048302;28;20460;-70
2022/01/27 10:40:45;;;;;;;1.20;1.05;;;;;;;;;;5048864;28;20037;-70
2022/01/27 10:43:21;;;;;;;5.20;0.90;;;;;;;;;;5030702;28;20025;-71
2022/01/27 10:46:12;;;;;;;1.55;1.10;;;;;;;;;;4998319;28;20471;-71
2022/01/27 10:48:42;;;;;;;1.08;0.98;;;;;;;;;;5048922;28;20016;-70
2022/01/27 10:51:14;;;;;;;0.90;0.90;;;;;;;;;;5049860;28;20021;-70
2022/01/27 10:53:55;;;;;;;0.98;0.98;;;;;;;;;;5016331;28;20120;-71
2022/01/27 10:56:29;;;;;;;0.93;0.93;;;;;;;;;;5048014;28;20197;-71
2022/01/27 10:58:55;;;;;;;1.13;1.02;;;;;;;;;;5013640;28;20052;-70
2022/01/27 11:01:26;;;;;;;0.95;0.95;;;;;;;;;;5031278;28;20128;-71
2022/01/27 11:03:53;;;;;;;2.80;1.45;;;;;;;;;;5030840;28;20025;-70
2022/01/27 11:06:24;;;;;;;1.58;1.15;;;;;;;;;;5031491;28;20025;-70
2022/01/27 11:08:54;;;;;;;3.47;1.00;;;;;;;;;;5029818;28;20043;-72
2022/01/27 11:11:20;;;;;;;1.33;1.05;;;;;;;;;;5028988;28;20028;-70
2022/01/27 11:13:46;;;;;;;1.75;1.10;;;;;;;;;;5046895;28;20462;-71
2022/01/27 11:16:15;;;;;;;1.05;0.98;;;;;;;;;;5013719;28;20048;-70
2022/01/27 11:18:40;;;;;;;1.23;1.10;;;;;;;;;;5030921;28;20051;-71
2022/01/27 11:21:22;;;;;;;2.03;1.08;;;;;;;;;;5049509;28;20032;-70
2022/01/27 11:24:00;;;;;;;2.47;1.35;;;;;;;;;;5032603;28;20031;-71
2022/01/27 11:26:25;;;;;;;3.15;1.33;;;;;;;;;;5017023;28;20017;-70
2022/01/27 11:28:51;;;;;;;1.17;1.08;;;;;;;;;;5014536;28;20107;-70
2022/01/27 11:31:35;;;;;;;1.58;1.10;;;;;;;;;;5029528;28;20115;-71
2022/01/27 11:34:04;;;;;;;1.00;0.90;;;;;;;;;;5048780;28;20124;-70
2022/01/27 11:36:30;;;;;;;2.33;0.90;;;;;;;;;;5030944;28;20033;-71
2022/01/27 11:38:56;;;;;;;1.20;1.10;;;;;;;;;;5047654;28;20052;-70
2022/01/27 11:41:36;;;;;;;1.25;1.15;;;;;;;;;;5029406;28;20079;-71
2022/01/27 11:44:25;;;;;;;4.28;1.30;;;;;;;;;;5047609;28;20036;-71
2022/01/27 11:47:09;;;;;;;1.20;1.10;;;;;;;;;;5030274;28;20520;-71
2022/01/27 11:50:07;;;;;;;1.10;0.90;;;;;;;;;;5048189;28;20422;-70
2022/01/27 11:52:34;;;;;;;0.90;0.90;;;;;;;;;;5032632;28;20024;-74
2022/01/27 11:55:24;;;;;;;1.17;1.10;;;;;;;;;;5009045;28;20540;-71
2022/01/27 11:57:53;;;;;;;2.35;1.27;;;;;;;;;;5045603;28;20043;-71
2022/01/27 12:00:20;;;;;;;1.63;1.27;;;;;;;;;;5024979;28;20411;-72
2022/01/27 12:03:00;;;;;;;1.20;1.10;;;;;;;;;;5006966;28;20029;-71
2022/01/27 12:05:36;;;;;;;1.15;1.05;;;;;;;;;;5042695;28;20087;-72
2022/01/27 12:08:18;;;;;;;6.18;1.10;;;;;;;;;;5039844;28;20040;-71
2022/01/27 12:11:01;;;;;;;1.33;1.10;;;;;;;;;;5038250;28;20698;-72
2022/01/27 12:19:04;;;;;;;0.85;0.80;;;;;;;;;;5042281;28;20087;-72
2022/01/27 12:21:38;;;;;;;3.40;0.90;;;;;;;;;;5024784;28;20036;-72
2022/01/27 12:24:23;;;;;;;1.10;1.00;;;;;;;;;;5023545;28;20464;-71
2022/01/27 12:26:48;;;;;;;2.45;1.02;;;;;;;;;;5039044;28;20637;-71
2022/01/27 12:29:39;;;;;;;3.78;1.00;;;;;;;;;;5040441;28;20025;-71
2022/01/27 12:32:08;;;;;;;0.98;0.98;;;;;;;;;;5008696;28;20135;-72
2022/01/27 12:34:35;;;;;;;1.55;1.02;;;;;;;;;;5042479;28;20487;-70
2022/01/27 12:37:08;;;;;;;0.80;0.80;;;;;;;;;;5024769;28;20481;-70
2022/01/27 12:39:41;;;;;;;1.50;0.90;;;;;;;;;;5008079;28;20032;-70
2022/01/27 12:42:08;;;;;;;1.08;1.00;;;;;;;;;;4986766;28;20025;-70
2022/01/27 12:44:34;;;;;;;2.63;1.02;;;;;;;;;;5020411;28;20094;-71
2022/01/27 12:47:15;;;;;;;3.60;0.80;;;;;;;;;;5012049;28;20499;-71
2022/01/27 12:50:05;;;;;;;1.65;0.90;;;;;;;;;;5009870;28;20953;-71
2022/01/27 12:52:34;;;;;;;0.93;0.93;;;;;;;;;;4993238;28;20048;-70
2022/01/27 12:54:59;;;;;;;1.10;1.00;;;;;;;;;;5009676;28;20177;-71
2022/01/27 12:57:26;;;;;;;0.80;0.80;;;;;;;;;;5010656;28;20063;-71
2022/01/27 12:59:53;;;;;;;1.23;1.13;;;;;;;;;;5040784;28;20032;-71
2022/01/27 13:02:19;;;;;;;1.02;0.90;;;;;;;;;;5020487;28;20061;-72
2022/01/27 13:04:45;;;;;;;0.88;0.88;;;;;;;;;;5024537;28;20513;-70
2022/01/27 13:07:10;;;;;;;0.90;0.90;;;;;;;;;;5002788;28;20095;-70
2022/01/27 13:09:36;;;;;;;3.47;1.00;;;;;;;;;;5022609;28;20527;-71
2022/01/27 13:12:17;;;;;;;1.40;1.20;;;;;;;;;;5024901;28;20057;-71
2022/01/27 13:14:50;;;;;;;0.80;0.80;;;;;;;;;;5008920;28;20029;-72
2022/01/27 13:17:26;;;;;;;1.10;1.02;;;;;;;;;;5024882;28;20032;-71
2022/01/27 13:19:57;;;;;;;0.93;0.93;;;;;;;;;;5035097;28;20108;-71
2022/01/27 13:22:29;;;;;;;1.08;1.00;;;;;;;;;;5049933;28;20033;-72
2022/01/27 13:24:55;;;;;;;1.98;1.17;;;;;;;;;;5028381;28;20036;-71
2022/01/27 13:27:20;;;;;;;1.05;1.05;;;;;;;;;;5032310;28;20036;-72
2022/01/27 13:29:46;;;;;;;1.17;1.08;;;;;;;;;;5009552;28;20362;-71
2022/01/27 13:32:12;;;;;;;4.88;1.20;;;;;;;;;;5047143;28;20772;-71
2022/01/27 13:34:42;;;;;;;1.00;0.90;;;;;;;;;;5028641;28;20025;-71
2022/01/27 13:37:07;;;;;;;4.43;1.50;;;;;;;;;;5008557;28;20058;-72
2022/01/27 13:42:18;;;;;;;3.80;0.90;;;;;;;;;;5030401;28;20587;-72
2022/01/27 13:44:54;;;;;;;0.93;0.93;;;;;;;;;;5030897;28;20103;-71
2022/01/27 13:47:35;;;;;;;1.10;1.10;;;;;;;;;;5014132;28;20433;-72
2022/01/27 13:50:19;;;;;;;6.65;1.05;;;;;;;;;;5027169;28;20036;-73
2022/01/27 13:52:49;;;;;;;1.80;1.10;;;;;;;;;;5009930;28;20037;-72
2022/01/27 13:55:22;;;;;;;1.00;1.00;;;;;;;;;;5046534;28;20130;-72
2022/01/27 13:58:00;;;;;;;2.92;1.00;;;;;;;;;;5015967;28;20380;-71
2022/01/27 14:00:36;;;;;;;1.00;1.00;;;;;;;;;;5048973;28;20356;-71
2022/01/27 14:03:38;;;;;;;4.30;1.10;;;;;;;;;;5033390;28;20514;-71
2022/01/27 14:06:05;;;;;;;2.40;1.05;;;;;;;;;;5048324;28;20452;-71
2022/01/27 14:08:37;;;;;;;5.10;1.02;;;;;;;;;;5048666;28;20363;-71
2022/01/27 14:11:03;;;;;;;2.45;1.10;;;;;;;;;;5048220;28;20039;-71
2022/01/27 14:13:28;;;;;;;1.33;1.20;;;;;;;;;;5032010;28;20032;-71
2022/01/27 14:15:54;;;;;;;1.23;1.13;;;;;;;;;;5048746;28;20047;-72
2022/01/27 14:18:30;;;;;;;1.10;1.10;;;;;;;;;;5029105;28;20041;-72
2022/01/27 14:21:03;;;;;;;3.38;1.20;;;;;;;;;;5014118;28;20037;-72
2022/01/27 14:26:25;;;;;;;1.15;1.10;;;;;;;;;;5047741;28;20044;-71
2022/01/27 14:28:50;;;;;;;1.35;1.25;;;;;;;;;;5014565;28;20021;-72
2022/01/27 14:31:16;;;;;;;2.33;1.30;;;;;;;;;;5047749;28;20609;-71
2022/01/27 14:33:41;;;;;;;1.58;1.40;;;;;;;;;;5031527;28;20238;-71
2022/01/27 14:36:06;;;;;;;1.42;1.33;;;;;;;;;;5049615;28;20119;-71
2022/01/27 14:38:31;;;;;;;1.33;1.23;;;;;;;;;;5031345;28;20085;-71
2022/01/27 14:40:57;;;;;;;1.42;1.25;;;;;;;;;;5046073;28;20052;-71
2022/01/27 14:43:25;;;;;;;1.23;1.10;;;;;;;;;;5029799;28;20104;-71
2022/01/27 14:45:50;;;;;;;3.00;1.40;;;;;;;;;;5047390;28;20123;-70
2022/01/27 14:48:16;;;;;;;1.77;1.40;;;;;;;;;;5028410;28;20112;-70
2022/01/27 14:50:41;;;;;;;1.40;1.30;;;;;;;;;;5049076;28;20680;-71
2022/01/27 14:53:07;;;;;;;1.45;1.35;;;;;;;;;;5029860;28;20564;-71
2022/01/27 14:55:33;;;;;;;1.60;1.45;;;;;;;;;;5047816;28;20025;-72
2022/01/27 14:57:58;;;;;;;1.40;1.30;;;;;;;;;;5026949;28;20096;-71
2022/01/27 15:00:24;;;;;;;1.63;1.30;;;;;;;;;;5046262;28;20372;-71
2022/01/27 15:02:49;;;;;;;2.20;1.45;;;;;;;;;;5013928;28;20487;-71
2022/01/27 15:05:14;;;;;;;1.75;1.65;;;;;;;;;;5006494;28;20048;-71
2022/01/27 15:07:41;;;;;;;2.40;1.50;;;;;;;;;;5049814;28;20032;-71
2022/01/27 15:10:07;;;;;;;2.30;1.40;;;;;;;;;;5029916;28;20021;-71
2022/01/27 15:12:32;;;;;;;1.42;1.27;;;;;;;;;;5014606;28;20033;-70
2022/01/27 15:20:27;;;;;;;3.70;1.30;;;;;;;;;;5047465;28;20086;-70
2022/01/27 15:22:54;;;;;;;4.95;1.80;;;;;;;;;;5047114;28;20036;-70
2022/01/27 15:25:21;;;;;;;2.17;1.77;;;;;;;;;;5048867;28;20025;-70
2022/01/27 15:27:46;;;;;;;3.78;2.15;;;;;;;;;;5047364;28;20035;-70
2022/01/27 15:30:12;;;;;;;2.65;1.90;;;;;;;;;;5047931;28;20021;-70
2022/01/27 15:32:37;;;;;;;1.77;1.50;;;;;;;;;;5027975;28;20087;-70
2022/01/27 15:35:10;;;;;;;2.20;1.70;;;;;;;;;;5031344;28;20036;-70
2022/01/27 15:37:36;;;;;;;1.60;1.43;;;;;;;;;;5028765;28;20051;-72
2022/01/27 15:40:02;;;;;;;6.70;1.80;;;;;;;;;;5047220;28;20025;-69
2022/01/27 15:42:27;;;;;;;1.45;1.35;;;;;;;;;;5045492;28;20426;-70
2022/01/27 15:44:52;;;;;;;1.77;1.50;;;;;;;;;;5028886;28;20495;-69
2022/01/27 15:47:18;;;;;;;6.45;2.50;;;;;;;;;;5045900;28;20515;-70